Time;durP1;ratioP1;P1;durP2;ratioP2;P2;SDS_P1;SDS_P2;PMS_P1;PMS_P2;Temp;Humidity;BMP_temperature;BMP_pressure;BME280_temperature;BME280_humidity;BME280_pressure;Samples;Min_cycle;Max_cycle;Signal;HPM_P1;HPM_P2
2022/05/06 00:00:18;;;;;;;2.73;1.20;;;18.00;99.90;;;;;;5094744;28;20228;-67
2022/05/06 00:02:46;;;;;;;10.37;2.17;;;18.20;99.90;;;;;;5093534;28;20179;-67
2022/05/06 00:05:13;;;;;;;5.83;1.33;;;18.20;99.90;;;;;;5094805;28;20173;-68
2022/05/06 00:07:40;;;;;;;4.77;1.20;;;17.90;99.90;;;;;;5094589;28;20246;-68
2022/05/06 00:10:09;;;;;;;8.27;1.30;;;18.40;99.90;;;;;;5094258;28;20593;-67
2022/05/06 00:12:37;;;;;;;3.47;1.03;;;18.70;99.90;;;;;;5094160;28;20256;-68
2022/05/06 00:15:11;;;;;;;3.13;1.20;;;18.80;99.90;;;;;;5094650;28;20921;-68
2022/05/06 00:17:39;;;;;;;1.43;0.87;;;18.70;99.90;;;;;;5094451;28;20611;-68
2022/05/06 00:20:06;;;;;;;5.63;1.00;;;19.30;99.90;;;;;;5094371;28;20264;-68
2022/05/06 00:22:34;;;;;;;4.53;1.23;;;19.10;99.90;;;;;;5093613;28;20181;-68
2022/05/06 00:25:01;;;;;;;4.03;1.27;;;18.70;99.90;;;;;;5093092;28;20220;-68
2022/05/06 00:27:28;;;;;;;3.20;0.80;;;19.40;99.90;;;;;;5093719;28;20218;-68
2022/05/06 00:29:56;;;;;;;2.37;1.10;;;18.90;99.90;;;;;;5093473;28;20624;-68
2022/05/06 00:32:24;;;;;;;1.83;1.13;;;19.10;99.90;;;;;;5093344;28;20278;-68
2022/05/06 00:34:51;;;;;;;2.37;0.80;;;19.30;99.90;;;;;;5093614;28;20183;-68
2022/05/06 00:37:18;;;;;;;4.67;0.90;;;19.40;99.90;;;;;;5093832;28;20214;-68
2022/05/06 00:39:46;;;;;;;4.87;1.30;;;19.70;99.90;;;;;;5093521;28;20175;-68
2022/05/06 00:42:13;;;;;;;3.17;1.07;;;19.60;99.90;;;;;;5092901;28;20523;-71
2022/05/06 00:44:40;;;;;;;2.73;0.97;;;19.40;99.90;;;;;;5093437;28;20183;-71
2022/05/06 00:47:08;;;;;;;3.00;1.00;;;19.40;99.90;;;;;;5092275;28;20203;-74
2022/05/06 00:49:36;;;;;;;2.43;0.90;;;19.30;99.90;;;;;;5093888;28;20229;-72
2022/05/06 00:52:07;;;;;;;2.63;0.93;;;19.10;99.90;;;;;;5093506;28;20501;-68
2022/05/06 00:54:37;;;;;;;2.33;0.90;;;19.30;99.90;;;;;;5093396;28;20179;-71
2022/05/06 00:57:07;;;;;;;3.43;1.00;;;19.40;99.90;;;;;;5093660;28;20223;-66
2022/05/06 01:00:17;;;;;;;3.67;1.20;;;19.30;99.90;;;;;;5093675;28;20175;-70
2022/05/06 01:02:26;;;;;;;4.90;1.20;;;20.00;99.90;;;;;;5092886;28;20268;-70
2022/05/06 01:04:54;;;;;;;5.53;1.30;;;20.20;99.90;;;;;;5093793;28;20184;-71
2022/05/06 01:07:22;;;;;;;3.80;0.90;;;20.40;99.90;;;;;;5093395;28;20257;-71
2022/05/06 01:09:49;;;;;;;2.60;1.00;;;20.10;99.90;;;;;;5093423;28;20657;-72
2022/05/06 01:12:17;;;;;;;5.73;1.00;;;19.90;99.90;;;;;;5090685;28;20183;-71
2022/05/06 01:14:44;;;;;;;1.47;0.73;;;20.00;99.60;;;;;;5079993;28;20548;-71
2022/05/06 01:17:13;;;;;;;1.27;0.93;;;19.80;99.90;;;;;;5092499;28;20182;-70
2022/05/06 01:19:40;;;;;;;2.77;0.90;;;20.20;98.40;;;;;;5089181;28;20183;-70
2022/05/06 01:22:07;;;;;;;5.07;1.20;;;19.90;95.70;;;;;;5092804;28;20191;-71
2022/05/06 01:24:35;;;;;;;1.57;0.70;;;20.10;96.80;;;;;;5092905;28;20175;-71
2022/05/06 01:27:09;;;;;;;7.90;1.17;;;20.40;96.20;;;;;;5092959;28;20544;-71
2022/05/06 01:29:37;;;;;;;4.93;1.00;;;21.30;96.00;;;;;;5092753;28;20217;-70
2022/05/06 01:32:05;;;;;;;3.23;1.10;;;20.60;92.80;;;;;;5092626;28;20235;-71
2022/05/06 01:34:33;;;;;;;2.87;1.00;;;20.40;94.50;;;;;;5092570;28;20216;-71
2022/05/06 01:37:05;;;;;;;3.90;1.10;;;20.60;95.00;;;;;;5091741;28;20179;-70
2022/05/06 01:39:37;;;;;;;5.90;0.90;;;21.00;96.90;;;;;;5092753;28;20179;-70
2022/05/06 01:42:06;;;;;;;4.27;1.00;;;21.30;93.50;;;;;;5092587;28;20202;-70
2022/05/06 01:44:40;;;;;;;6.10;0.90;;;21.50;92.00;;;;;;5092659;28;20182;-71
2022/05/06 01:47:23;;;;;;;2.37;0.80;;;21.40;91.20;;;;;;5092744;28;20197;-68
2022/05/06 01:49:53;;;;;;;5.00;1.23;;;21.30;90.50;;;;;;5090521;28;20766;-69
2022/05/06 01:52:20;;;;;;;4.10;1.00;;;21.70;89.90;;;;;;5092354;28;20183;-69
2022/05/06 01:54:48;;;;;;;3.57;1.20;;;21.30;85.10;;;;;;5092166;28;20226;-70
2022/05/06 01:57:16;;;;;;;3.00;0.90;;;21.50;86.90;;;;;;5092327;28;20184;-70
2022/05/06 01:59:43;;;;;;;3.80;0.80;;;21.20;90.60;;;;;;5091356;28;20188;-70
2022/05/06 02:02:10;;;;;;;3.50;1.07;;;21.70;91.40;;;;;;5091964;28;20178;-70
2022/05/06 02:07:23;;;;;;;5.70;1.07;;;22.20;82.30;;;;;;5092329;28;20752;-71
2022/05/06 02:09:50;;;;;;;3.57;0.80;;;22.30;86.60;;;;;;5092076;28;20268;-71
2022/05/06 02:12:18;;;;;;;8.80;1.07;;;22.00;84.40;;;;;;5091470;28;20175;-70
2022/05/06 02:14:46;;;;;;;1.37;0.80;;;22.00;88.00;;;;;;5092145;28;20182;-71
2022/05/06 02:17:14;;;;;;;6.80;1.50;;;21.90;83.10;;;;;;5092077;28;20194;-71
2022/05/06 02:19:42;;;;;;;1.97;0.83;;;22.30;86.40;;;;;;5092113;28;20618;-71
2022/05/06 02:22:09;;;;;;;3.47;0.87;;;22.00;86.70;;;;;;5090963;28;20205;-72
2022/05/06 02:24:37;;;;;;;4.70;0.80;;;22.30;80.80;;;;;;5091949;28;20175;-70
2022/05/06 02:27:04;;;;;;;2.87;0.97;;;21.90;80.60;;;;;;5091637;28;20348;-71
2022/05/06 02:29:32;;;;;;;4.83;0.90;;;21.70;82.50;;;;;;5091999;28;20178;-71
2022/05/06 02:34:44;;;;;;;2.90;0.97;;;21.70;84.10;;;;;;5091481;28;20186;-71
2022/05/06 02:37:12;;;;;;;2.37;1.00;;;21.60;89.50;;;;;;5092016;28;20170;-71
2022/05/06 02:39:40;;;;;;;2.13;1.00;;;21.90;82.10;;;;;;5091745;28;20199;-71
2022/05/06 02:42:08;;;;;;;1.70;0.80;;;22.70;85.30;;;;;;5091694;28;20195;-67
2022/05/06 02:44:35;;;;;;;4.43;0.93;;;22.30;81.10;;;;;;5091030;28;20267;-70
2022/05/06 02:47:02;;;;;;;3.33;0.90;;;22.90;86.10;;;;;;5091236;28;20183;-70
2022/05/06 02:49:29;;;;;;;2.43;0.77;;;23.00;84.00;;;;;;5095866;28;20258;-70
2022/05/06 02:51:57;;;;;;;3.47;0.90;;;22.50;80.40;;;;;;5095960;28;20178;-71
2022/05/06 02:54:24;;;;;;;6.03;1.20;;;23.50;82.40;;;;;;5095671;28;20187;-71
2022/05/06 02:56:52;;;;;;;4.37;0.70;;;23.00;79.00;;;;;;5095842;28;20175;-70
2022/05/06 02:59:19;;;;;;;4.00;1.00;;;22.50;77.60;;;;;;5095568;28;20182;-71
2022/05/06 03:01:46;;;;;;;5.27;1.00;;;22.10;80.20;;;;;;5095679;28;20182;-71
2022/05/06 03:04:14;;;;;;;4.13;1.00;;;22.00;84.10;;;;;;5095493;28;20252;-71
2022/05/06 03:06:44;;;;;;;5.23;0.93;;;22.60;78.40;;;;;;5095842;28;20516;-71
2022/05/06 03:09:12;;;;;;;3.93;1.03;;;22.40;77.50;;;;;;5095586;28;20637;-72
2022/05/06 03:11:39;;;;;;;3.70;0.67;;;22.40;82.20;;;;;;5095311;28;20175;-69
2022/05/06 03:14:06;;;;;;;2.37;0.87;;;22.40;81.50;;;;;;5095332;28;20605;-70
2022/05/06 03:16:33;;;;;;;3.33;1.00;;;22.60;83.00;;;;;;5095366;28;20183;-71
2022/05/06 03:19:01;;;;;;;1.20;0.63;;;22.30;82.70;;;;;;5095099;28;20215;-72
2022/05/06 03:21:28;;;;;;;3.53;1.00;;;22.50;77.00;;;;;;5095217;28;20619;-71
2022/05/06 03:23:58;;;;;;;6.67;0.90;;;22.30;80.50;;;;;;5094979;28;20183;-71
2022/05/06 03:26:25;;;;;;;2.43;0.57;;;22.40;80.60;;;;;;5095233;28;20643;-72
2022/05/06 03:28:56;;;;;;;3.80;0.80;;;22.00;80.40;;;;;;5095378;28;20264;-67
2022/05/06 03:31:26;;;;;;;1.97;0.80;;;22.50;80.10;;;;;;5095343;28;20207;-72
2022/05/06 03:33:54;;;;;;;2.07;0.90;;;23.30;79.00;;;;;;5094791;28;20186;-71
2022/05/06 03:36:22;;;;;;;1.83;0.73;;;23.70;78.30;;;;;;5093469;28;20193;-71
2022/05/06 03:38:50;;;;;;;2.27;0.80;;;22.80;77.30;;;;;;5093344;28;20357;-72
2022/05/06 03:41:17;;;;;;;1.70;0.70;;;23.90;78.30;;;;;;5094769;28;20192;-71
2022/05/06 03:43:44;;;;;;;1.77;0.93;;;23.90;75.70;;;;;;5093316;28;20194;-70
2022/05/06 03:46:12;;;;;;;3.23;1.17;;;23.70;69.90;;;;;;5094530;28;20269;-70
2022/05/06 03:48:39;;;;;;;3.80;1.00;;;23.60;73.40;;;;;;5094646;28;20242;-70
2022/05/06 03:51:24;;;;;;;5.40;0.80;;;23.70;74.40;;;;;;5093240;28;20194;-70
2022/05/06 03:53:56;;;;;;;4.17;0.60;;;24.10;76.40;;;;;;5094804;28;20187;-71
2022/05/06 03:56:24;;;;;;;7.33;1.00;;;23.70;72.20;;;;;;5094252;28;20700;-71
2022/05/06 03:58:52;;;;;;;3.33;1.40;;;23.60;78.50;;;;;;5092641;28;20200;-70
2022/05/06 04:01:20;;;;;;;5.60;0.93;;;24.10;75.50;;;;;;5094046;28;20187;-70
2022/05/06 04:03:48;;;;;;;3.73;0.90;;;24.40;78.30;;;;;;5094223;28;20237;-71
2022/05/06 04:06:15;;;;;;;2.30;0.77;;;24.30;71.30;;;;;;5094308;28;20179;-70
2022/05/06 04:08:43;;;;;;;4.57;1.33;;;24.10;70.00;;;;;;5092396;28;20215;-71
2022/05/06 04:11:14;;;;;;;4.00;0.80;;;23.70;68.70;;;;;;5094159;28;20601;-70
2022/05/06 04:13:42;;;;;;;3.03;0.80;;;24.00;74.00;;;;;;5093945;28;20749;-71
2022/05/06 04:16:09;;;;;;;2.90;1.10;;;24.00;66.30;;;;;;5094275;28;20217;-72
2022/05/06 04:18:37;;;;;;;4.80;1.20;;;22.90;64.70;;;;;;5093684;28;20700;-70
2022/05/06 04:23:49;;;;;;;3.53;0.70;;;23.00;67.20;;;;;;5094056;28;20256;-72
2022/05/06 04:26:17;;;;;;;2.83;1.00;;;23.40;69.30;;;;;;5094108;28;20182;-71
2022/05/06 04:28:44;;;;;;;4.63;1.07;;;23.50;69.40;;;;;;5093812;28;20321;-72
2022/05/06 04:31:12;;;;;;;1.57;0.63;;;23.50;69.10;;;;;;5093834;28;20187;-70
2022/05/06 04:33:41;;;;;;;3.23;0.83;;;23.70;69.10;;;;;;5093910;28;20733;-71
2022/05/06 04:36:09;;;;;;;3.00;1.00;;;23.40;69.40;;;;;;5093689;28;20179;-71
2022/05/06 04:38:37;;;;;;;1.70;0.73;;;23.20;68.70;;;;;;5093792;28;20182;-70
2022/05/06 04:41:04;;;;;;;2.03;0.73;;;23.40;66.40;;;;;;5093717;28;20179;-70
2022/05/06 04:43:32;;;;;;;0.87;0.60;;;23.30;69.30;;;;;;5093180;28;20251;-71
2022/05/06 04:45:59;;;;;;;1.80;0.80;;;23.10;64.60;;;;;;5093235;28;20172;-72
2022/05/06 04:48:26;;;;;;;2.00;0.90;;;23.10;67.60;;;;;;5092861;28;20629;-72
2022/05/06 04:50:54;;;;;;;1.97;0.77;;;22.90;65.90;;;;;;5092958;28;20811;-71
2022/05/06 04:53:21;;;;;;;2.80;0.70;;;23.50;63.80;;;;;;5093552;28;20572;-73
2022/05/06 04:55:49;;;;;;;3.17;0.87;;;23.60;62.60;;;;;;5093243;28;20574;-71
2022/05/06 04:58:18;;;;;;;2.93;0.80;;;23.50;62.90;;;;;;5093623;28;20185;-73
2022/05/06 05:00:46;;;;;;;3.50;0.53;;;23.10;63.50;;;;;;5093634;28;20200;-73
2022/05/06 05:03:14;;;;;;;1.20;0.73;;;23.00;65.20;;;;;;5092537;28;20613;-71
2022/05/06 05:05:41;;;;;;;1.00;0.63;;;23.50;65.60;;;;;;5093525;28;20177;-72
2022/05/06 05:08:09;;;;;;;3.80;0.60;;;23.50;63.60;;;;;;5092957;28;20216;-73
2022/05/06 05:10:36;;;;;;;6.13;1.00;;;23.30;62.90;;;;;;5092845;28;20175;-72
2022/05/06 05:13:04;;;;;;;1.40;0.70;;;23.50;66.30;;;;;;5093304;28;20535;-73
2022/05/06 05:15:31;;;;;;;1.27;0.60;;;23.90;64.40;;;;;;5092957;28;20273;-72
2022/05/06 05:17:59;;;;;;;3.80;0.70;;;23.30;62.20;;;;;;5093066;28;20560;-73
2022/05/06 05:20:26;;;;;;;1.77;0.77;;;22.80;65.50;;;;;;5092744;28;20183;-72
2022/05/06 05:22:53;;;;;;;1.80;0.73;;;22.50;68.60;;;;;;5092909;28;20186;-70
2022/05/06 05:25:21;;;;;;;1.83;0.67;;;22.30;66.40;;;;;;5093174;28;20179;-72
2022/05/06 05:27:48;;;;;;;3.33;0.90;;;22.10;65.50;;;;;;5093041;28;20290;-70
2022/05/06 05:30:15;;;;;;;1.03;0.60;;;22.30;66.00;;;;;;5092654;28;20193;-71
2022/05/06 05:32:43;;;;;;;2.90;0.70;;;22.30;67.90;;;;;;5092595;28;20183;-70
2022/05/06 05:35:10;;;;;;;2.53;1.03;;;22.00;67.70;;;;;;5092821;28;20199;-68
2022/05/06 05:37:38;;;;;;;1.70;0.70;;;21.60;62.80;;;;;;5092571;28;20241;-68
2022/05/06 05:40:06;;;;;;;1.33;0.70;;;21.70;63.70;;;;;;5092537;28;20269;-68
2022/05/06 05:42:33;;;;;;;2.30;0.70;;;22.00;64.00;;;;;;5092788;28;20217;-68
2022/05/06 05:50:31;;;;;;;2.10;0.60;;;22.30;60.80;;;;;;5092406;28;20276;-68
2022/05/06 05:52:58;;;;;;;5.77;1.37;;;21.70;65.80;;;;;;5092376;28;20179;-68
2022/05/06 05:55:25;;;;;;;3.27;0.63;;;21.40;68.10;;;;;;5092272;28;20226;-68
2022/05/06 05:57:53;;;;;;;3.27;0.77;;;21.10;68.30;;;;;;5092372;28;20175;-68
2022/05/06 06:00:20;;;;;;;1.03;0.60;;;20.70;66.20;;;;;;5092045;28;20179;-68
2022/05/06 06:02:47;;;;;;;3.30;1.10;;;20.50;68.80;;;;;;5090935;28;21035;-68
2022/05/06 06:05:15;;;;;;;2.57;0.77;;;20.30;71.60;;;;;;5092153;28;20214;-69
2022/05/06 06:07:43;;;;;;;2.00;0.70;;;20.10;74.40;;;;;;5091002;28;20224;-68
2022/05/06 06:10:11;;;;;;;1.50;0.67;;;19.90;74.80;;;;;;5091934;28;20543;-69
2022/05/06 06:12:39;;;;;;;4.20;0.53;;;19.60;73.80;;;;;;5092002;28;20187;-68
2022/05/06 06:15:07;;;;;;;1.40;0.77;;;19.60;76.90;;;;;;5092189;28;20175;-69
2022/05/06 06:17:35;;;;;;;4.50;0.80;;;19.30;79.40;;;;;;5092014;28;20187;-68
2022/05/06 06:20:02;;;;;;;1.77;0.67;;;19.20;77.50;;;;;;5091961;28;21018;-68
2022/05/06 06:22:30;;;;;;;4.53;0.90;;;19.10;82.20;;;;;;5089999;28;20185;-68
2022/05/06 06:24:57;;;;;;;1.70;0.67;;;18.90;85.20;;;;;;5090589;28;20190;-68
2022/05/06 06:27:27;;;;;;;2.37;0.70;;;18.90;86.40;;;;;;5091694;28;20197;-68
2022/05/06 06:29:55;;;;;;;2.13;0.60;;;18.90;84.10;;;;;;5091949;28;20223;-68
2022/05/06 06:32:22;;;;;;;1.70;0.90;;;19.00;84.60;;;;;;5091848;28;20167;-68
2022/05/06 06:34:52;;;;;;;4.00;1.07;;;18.90;86.30;;;;;;5091523;28;20613;-68
2022/05/06 06:37:20;;;;;;;2.23;1.00;;;18.80;91.30;;;;;;5091885;28;20244;-68
2022/05/06 06:39:48;;;;;;;2.33;0.73;;;18.70;90.50;;;;;;5091777;28;20652;-68
2022/05/06 06:42:15;;;;;;;3.07;1.07;;;18.50;92.00;;;;;;5091434;28;20654;-68
2022/05/06 06:44:42;;;;;;;5.93;1.00;;;18.40;95.80;;;;;;5092069;28;20175;-68
2022/05/06 06:47:11;;;;;;;2.70;0.83;;;18.30;96.20;;;;;;5091675;28;20544;-68
2022/05/06 06:49:38;;;;;;;2.50;0.93;;;18.10;95.60;;;;;;5091654;28;20186;-68
2022/05/06 06:52:06;;;;;;;1.77;1.20;;;18.00;96.00;;;;;;5091672;28;20271;-69
2022/05/06 06:54:33;;;;;;;2.63;0.90;;;17.90;97.00;;;;;;5091370;28;20214;-69
2022/05/06 06:57:01;;;;;;;5.97;1.67;;;17.80;98.40;;;;;;5091798;28;20172;-69
2022/05/06 06:59:28;;;;;;;3.43;1.47;;;17.70;99.90;;;;;;5091504;28;20235;-68
2022/05/06 07:01:55;;;;;;;2.60;1.27;;;17.50;99.90;;;;;;5090286;28;20183;-68
2022/05/06 07:04:23;;;;;;;7.87;1.50;;;17.40;99.90;;;;;;5091727;28;20171;-68
2022/05/06 07:12:21;;;;;;;2.43;1.27;;;16.90;99.90;;;;;;5091454;28;20225;-68
2022/05/06 07:14:48;;;;;;;2.23;1.33;;;16.80;99.90;;;;;;5091702;28;20179;-68
2022/05/06 07:17:16;;;;;;;6.33;1.60;;;16.60;99.90;;;;;;5090956;28;20527;-68
2022/05/06 07:19:43;;;;;;;6.87;1.50;;;16.50;99.90;;;;;;5091268;28;20603;-68
2022/05/06 07:22:10;;;;;;;6.80;1.57;;;16.30;99.90;;;;;;5090079;28;20204;-67
2022/05/06 07:24:38;;;;;;;6.33;1.57;;;16.20;99.90;;;;;;5091445;28;20179;-67
2022/05/06 07:27:06;;;;;;;2.17;1.50;;;16.00;99.90;;;;;;5091267;28;20227;-67
2022/05/06 07:29:33;;;;;;;4.00;1.77;;;15.90;99.90;;;;;;5091462;28;20179;-67
2022/05/06 07:32:00;;;;;;;5.53;1.30;;;15.70;99.90;;;;;;5091441;28;20176;-67
2022/05/06 07:34:28;;;;;;;2.97;1.23;;;15.60;99.90;;;;;;5093380;28;20187;-67
2022/05/06 07:36:56;;;;;;;7.27;1.93;;;15.50;99.90;;;;;;5095281;28;20182;-67
2022/05/06 07:39:23;;;;;;;4.90;1.47;;;15.30;99.90;;;;;;5095018;28;20199;-67
2022/05/06 07:41:50;;;;;;;5.23;1.60;;;15.20;99.90;;;;;;5094963;28;20207;-67
2022/05/06 07:44:17;;;;;;;5.10;1.77;;;15.10;99.90;;;;;;5094971;28;20182;-67
2022/05/06 07:46:45;;;;;;;4.03;1.83;;;15.00;99.90;;;;;;5095038;28;20576;-67
2022/05/06 07:49:13;;;;;;;2.93;1.30;;;14.80;99.90;;;;;;5094973;28;20236;-67
2022/05/06 07:51:40;;;;;;;5.57;1.70;;;14.70;99.90;;;;;;5094935;28;20180;-68
2022/05/06 07:54:08;;;;;;;1.80;1.20;;;14.60;99.90;;;;;;5094728;28;20202;-68
2022/05/06 07:56:35;;;;;;;8.87;1.50;;;14.60;99.90;;;;;;5094801;28;20241;-68
2022/05/06 07:59:03;;;;;;;6.30;1.40;;;14.50;99.90;;;;;;5094781;28;20174;-68
2022/05/06 08:04:35;;;;;;;11.13;1.63;;;14.30;99.90;;;;;;5099602;28;20224;-66
2022/05/06 08:07:04;;;;;;;4.57;1.33;;;14.30;99.90;;;;;;5094680;28;20216;-67
2022/05/06 08:09:32;;;;;;;5.43;1.40;;;14.20;99.90;;;;;;5093350;28;20190;-68
2022/05/06 08:12:00;;;;;;;4.07;1.30;;;14.20;99.90;;;;;;5094595;28;20289;-67
2022/05/06 08:14:27;;;;;;;4.30;1.70;;;14.00;99.90;;;;;;5094548;28;20598;-67
2022/05/06 08:16:55;;;;;;;5.07;1.67;;;13.90;99.90;;;;;;5094661;28;20723;-66
2022/05/06 08:19:22;;;;;;;7.60;1.60;;;13.90;99.90;;;;;;5094533;28;20261;-68
2022/05/06 08:21:51;;;;;;;6.10;1.80;;;13.80;99.90;;;;;;5094056;28;20273;-66
2022/05/06 08:24:19;;;;;;;6.10;2.10;;;13.80;99.90;;;;;;5094118;28;20279;-66
2022/05/06 08:26:47;;;;;;;5.37;2.43;;;13.70;99.90;;;;;;5094237;28;20183;-67
2022/05/06 08:29:14;;;;;;;7.20;2.33;;;13.70;99.90;;;;;;5094103;28;20640;-67
2022/05/06 08:31:42;;;;;;;6.03;2.50;;;14.00;99.90;;;;;;5094098;28;20637;-67
2022/05/06 08:34:13;;;;;;;7.80;2.67;;;14.20;99.90;;;;;;5093733;28;20182;-67
2022/05/06 08:36:43;;;;;;;6.83;2.30;;;14.10;99.90;;;;;;5093962;28;20180;-66
2022/05/06 08:39:14;;;;;;;5.93;2.27;;;14.10;99.90;;;;;;5093907;28;20178;-66
2022/05/06 08:41:42;;;;;;;7.33;2.30;;;14.10;99.90;;;;;;5093768;28;20226;-66
2022/05/06 08:52:36;;;;;;;5.03;1.60;;;14.30;99.90;;;;;;5094823;28;20271;-68
2022/05/06 08:55:05;;;;;;;2.93;1.60;;;14.80;99.90;;;;;;5093371;28;20244;-66
2022/05/06 08:57:33;;;;;;;2.70;1.13;;;14.90;99.90;;;;;;5094387;28;20179;-67
2022/05/06 09:00:00;;;;;;;2.07;1.20;;;15.00;99.90;;;;;;5092852;28;20188;-69
2022/05/06 09:02:27;;;;;;;4.70;1.43;;;15.00;99.90;;;;;;5094523;28;20178;-69
2022/05/06 09:04:55;;;;;;;4.93;1.40;;;15.10;99.90;;;;;;5094743;28;20190;-68
2022/05/06 09:07:25;;;;;;;2.53;1.20;;;15.10;99.90;;;;;;5094089;28;20176;-69
2022/05/06 09:10:14;;;;;;;3.70;1.40;;;15.10;99.90;;;;;;5094419;28;20195;-68
2022/05/06 09:12:46;;;;;;;2.83;1.30;;;15.10;99.90;;;;;;5094006;28;20194;-69
2022/05/06 09:18:03;;;;;;;6.87;1.40;;;15.10;99.90;;;;;;5094670;28;20256;-69
2022/05/06 09:20:30;;;;;;;4.63;1.73;;;15.00;99.90;;;;;;5094420;28;20192;-68
2022/05/06 09:22:58;;;;;;;6.70;1.70;;;14.90;99.90;;;;;;5092861;28;20211;-68
2022/05/06 09:25:40;;;;;;;5.07;1.40;;;14.90;99.90;;;;;;5093677;28;20284;-69
2022/05/06 09:28:30;;;;;;;5.93;1.57;;;14.70;99.90;;;;;;5093884;28;20209;-69
2022/05/06 09:31:04;;;;;;;6.20;2.20;;;14.60;99.90;;;;;;5093585;28;20655;-69
2022/05/06 09:33:37;;;;;;;3.67;1.30;;;14.50;99.90;;;;;;5093646;28;20187;-68
2022/05/06 09:36:24;;;;;;;3.07;1.67;;;14.40;99.90;;;;;;5094135;28;20181;-69
2022/05/06 09:39:02;;;;;;;2.93;1.40;;;14.20;99.90;;;;;;5094251;28;20666;-69
2022/05/06 09:41:30;;;;;;;5.57;1.40;;;14.20;99.90;;;;;;5093819;28;20603;-69
2022/05/06 09:44:04;;;;;;;4.30;1.77;;;14.20;99.90;;;;;;5094027;28;20174;-69
2022/05/06 09:46:32;;;;;;;3.87;1.63;;;14.20;99.90;;;;;;5094011;28;20202;-69
2022/05/06 09:49:02;;;;;;;4.77;1.70;;;14.20;99.90;;;;;;5093995;28;20211;-70
2022/05/06 09:51:34;;;;;;;5.60;1.80;;;14.10;99.90;;;;;;5093840;28;20672;-68
2022/05/06 09:54:05;;;;;;;4.03;1.70;;;14.00;99.90;;;;;;5093919;28;20211;-70
2022/05/06 09:56:33;;;;;;;3.83;1.70;;;13.80;99.90;;;;;;5093439;28;20234;-69
2022/05/06 09:59:01;;;;;;;4.27;1.83;;;13.60;99.90;;;;;;5093231;28;20178;-68
2022/05/06 10:01:28;;;;;;;7.57;1.97;;;13.40;99.90;;;;;;5093600;28;20178;-69
2022/05/06 10:03:55;;;;;;;6.97;2.17;;;13.30;99.90;;;;;;5093849;28;20184;-68
2022/05/06 10:06:25;;;;;;;5.37;2.33;;;13.20;99.90;;;;;;5093760;28;20262;-69
2022/05/06 10:09:00;;;;;;;7.97;2.30;;;12.90;99.90;;;;;;5093514;28;20257;-67
2022/05/06 10:11:28;;;;;;;6.53;2.20;;;12.80;99.90;;;;;;5092946;28;20260;-69
2022/05/06 10:14:03;;;;;;;6.07;2.17;;;12.60;99.90;;;;;;5093002;28;20234;-68
2022/05/06 10:16:37;;;;;;;5.67;2.30;;;12.90;99.90;;;;;;5093162;28;20174;-69
2022/05/06 10:19:04;;;;;;;3.90;2.00;;;12.70;99.90;;;;;;5097239;28;20179;-69
2022/05/06 10:21:48;;;;;;;6.27;2.63;;;12.60;99.90;;;;;;5093163;28;20207;-68
2022/05/06 10:24:17;;;;;;;7.97;2.40;;;12.40;99.90;;;;;;5093531;28;20173;-69
2022/05/06 10:26:52;;;;;;;5.00;1.97;;;12.40;99.90;;;;;;5093473;28;20178;-70
2022/05/06 10:32:26;;;;;;;3.70;1.60;;;12.70;99.90;;;;;;5093276;28;20184;-68
2022/05/06 10:35:04;;;;;;;4.83;1.60;;;12.90;99.90;;;;;;5093236;28;20169;-69
2022/05/06 10:37:40;;;;;;;3.90;1.70;;;13.00;99.90;;;;;;5091949;28;20549;-69
2022/05/06 10:40:48;;;;;;;3.87;1.80;;;13.00;99.90;;;;;;5093218;28;20200;-70
2022/05/06 10:43:41;;;;;;;3.53;1.30;;;13.00;99.90;;;;;;5072636;28;20225;-69
2022/05/06 10:46:09;;;;;;;2.83;1.30;;;12.90;99.90;;;;;;5087835;28;20190;-69
2022/05/06 10:48:36;;;;;;;3.77;1.47;;;12.90;99.90;;;;;;5092769;28;20218;-68
2022/05/06 10:51:27;;;;;;;3.97;1.50;;;12.80;99.90;;;;;;5091333;28;20176;-68
2022/05/06 10:53:55;;;;;;;3.20;1.80;;;12.70;99.90;;;;;;5093259;28;20169;-68
2022/05/06 10:56:22;;;;;;;2.63;1.50;;;12.50;99.90;;;;;;5092905;28;20659;-68
2022/05/06 10:58:57;;;;;;;4.37;1.80;;;12.40;99.90;;;;;;5092888;28;20196;-68
2022/05/06 11:01:26;;;;;;;5.40;1.73;;;12.20;99.90;;;;;;5092622;28;20178;-68
2022/05/06 11:03:54;;;;;;;2.30;1.60;;;12.00;99.90;;;;;;5091716;28;20203;-67
2022/05/06 11:06:24;;;;;;;4.93;1.63;;;11.80;99.90;;;;;;5092928;28;20246;-68
2022/05/06 11:08:53;;;;;;;3.17;1.50;;;11.70;99.90;;;;;;5093351;28;20221;-69
2022/05/06 11:11:20;;;;;;;5.80;1.73;;;11.50;99.90;;;;;;5096592;28;20586;-68
2022/05/06 11:13:49;;;;;;;6.73;2.07;;;11.50;99.90;;;;;;5095685;28;20185;-68
2022/05/06 11:16:17;;;;;;;4.77;1.93;;;11.40;99.90;;;;;;5086943;28;20686;-68
2022/05/06 11:18:45;;;;;;;4.43;1.60;;;11.30;99.90;;;;;;5096987;28;20179;-68
2022/05/06 11:21:23;;;;;;;5.33;1.60;;;11.20;99.90;;;;;;5096414;28;20541;-68
2022/05/06 11:23:51;;;;;;;7.50;1.77;;;11.10;99.90;;;;;;5096550;28;20265;-68
2022/05/06 11:26:26;;;;;;;5.23;1.90;;;11.10;99.90;;;;;;5096931;28;20177;-68
2022/05/06 11:29:06;;;;;;;1.83;1.50;;;11.00;99.90;;;;;;5096788;28;20211;-66
2022/05/06 11:31:33;;;;;;;3.57;2.17;;;11.00;99.90;;;;;;5096457;28;20183;-68
2022/05/06 11:34:05;;;;;;;2.70;1.63;;;11.00;99.90;;;;;;5096527;28;20224;-68
2022/05/06 11:36:33;;;;;;;4.23;2.10;;;10.90;99.90;;;;;;5096592;28;20693;-68
2022/05/06 11:39:12;;;;;;;3.33;1.63;;;10.80;99.90;;;;;;5096455;28;20184;-69
2022/05/06 11:41:39;;;;;;;4.27;1.60;;;10.80;99.90;;;;;;5096302;28;20234;-68
2022/05/06 11:44:07;;;;;;;2.87;1.57;;;10.70;99.90;;;;;;5096599;28;20172;-68
2022/05/06 11:49:26;;;;;;;3.87;1.83;;;10.70;99.90;;;;;;5096263;28;20259;-68
2022/05/06 11:51:56;;;;;;;6.47;2.30;;;10.60;99.90;;;;;;5096445;28;20172;-69
2022/05/06 11:54:24;;;;;;;4.60;2.13;;;10.60;99.90;;;;;;5095898;28;20183;-67
2022/05/06 11:56:52;;;;;;;4.20;2.00;;;10.50;99.90;;;;;;5096395;28;20192;-67
2022/05/06 11:59:20;;;;;;;3.23;1.77;;;10.50;99.90;;;;;;5096188;28;20176;-67
2022/05/06 12:01:48;;;;;;;2.57;2.00;;;10.40;99.90;;;;;;5095916;28;20171;-68
2022/05/06 12:04:15;;;;;;;5.60;2.50;;;10.30;99.90;;;;;;5096059;28;20218;-67
2022/05/06 12:06:50;;;;;;;4.40;2.00;;;10.30;99.90;;;;;;5096073;28;20173;-67
2022/05/06 12:09:24;;;;;;;4.23;2.17;;;10.30;99.90;;;;;;5095757;28;20208;-68
2022/05/06 12:12:08;;;;;;;5.20;1.83;;;10.20;99.90;;;;;;5094364;28;20308;-68
2022/05/06 12:14:35;;;;;;;3.57;1.90;;;10.10;99.90;;;;;;5095893;28;20195;-68
2022/05/06 12:17:14;;;;;;;2.97;1.70;;;10.10;99.90;;;;;;5094538;28;20171;-68
2022/05/06 12:19:45;;;;;;;4.37;1.80;;;10.00;99.90;;;;;;5095659;28;20177;-68
2022/05/06 12:22:24;;;;;;;6.10;1.47;;;9.90;99.90;;;;;;5095006;28;20173;-68
2022/05/06 12:24:56;;;;;;;4.50;1.70;;;9.90;99.90;;;;;;5096000;28;20184;-67
2022/05/06 12:27:28;;;;;;;3.57;1.70;;;9.90;99.90;;;;;;5095467;28;20538;-67
2022/05/06 12:29:58;;;;;;;4.37;1.90;;;9.80;99.90;;;;;;5095657;28;20176;-69
2022/05/06 12:32:28;;;;;;;3.67;1.70;;;9.80;99.90;;;;;;5095440;28;20169;-68
2022/05/06 12:35:09;;;;;;;4.07;1.90;;;9.70;99.90;;;;;;5095542;28;20176;-68
2022/05/06 12:37:52;;;;;;;3.30;1.73;;;9.70;99.90;;;;;;5095468;28;20568;-68
2022/05/06 12:40:20;;;;;;;2.93;1.80;;;9.70;99.90;;;;;;5095579;28;20186;-68
2022/05/06 12:43:03;;;;;;;7.10;1.80;;;9.70;99.90;;;;;;5095255;28;20649;-68
2022/05/06 12:45:30;;;;;;;4.33;2.07;;;9.60;99.90;;;;;;5095563;28;20256;-68
2022/05/06 12:50:43;;;;;;;5.37;2.10;;;9.50;99.90;;;;;;5094374;28;20198;-67
2022/05/06 12:53:11;;;;;;;5.33;2.20;;;9.50;99.90;;;;;;5094716;28;20194;-68
2022/05/06 12:55:41;;;;;;;4.37;1.73;;;9.50;99.90;;;;;;5094628;28;20235;-67
2022/05/06 12:58:10;;;;;;;3.77;2.20;;;9.50;99.90;;;;;;5095132;28;20256;-67
2022/05/06 13:00:39;;;;;;;5.53;2.20;;;9.50;99.90;;;;;;5094552;28;20173;-68
2022/05/06 13:03:07;;;;;;;2.97;1.70;;;9.40;99.90;;;;;;5095039;28;20184;-68
2022/05/06 13:05:35;;;;;;;3.00;1.87;;;9.40;99.90;;;;;;5094188;28;20176;-68
2022/05/06 13:08:06;;;;;;;2.20;1.90;;;9.30;99.90;;;;;;5094390;28;20264;-67
2022/05/06 13:10:34;;;;;;;3.80;1.67;;;9.30;99.90;;;;;;5093795;28;20193;-67
2022/05/06 13:13:02;;;;;;;4.53;2.20;;;9.20;99.90;;;;;;5093267;28;20183;-67
2022/05/06 13:15:30;;;;;;;4.33;2.23;;;9.20;99.90;;;;;;5094429;28;20271;-68
2022/05/06 13:17:57;;;;;;;5.77;2.10;;;9.20;99.90;;;;;;5094633;28;20262;-68
2022/05/06 13:20:25;;;;;;;2.77;1.80;;;9.20;99.90;;;;;;5093934;28;20207;-67
2022/05/06 13:22:52;;;;;;;4.43;2.00;;;9.20;99.90;;;;;;5093220;28;20700;-67
2022/05/06 13:25:20;;;;;;;4.13;2.37;;;9.10;99.90;;;;;;5094204;28;20172;-68
2022/05/06 13:27:47;;;;;;;6.87;2.53;;;9.10;99.90;;;;;;5094426;28;20203;-68
2022/05/06 13:30:15;;;;;;;3.60;2.00;;;9.10;99.90;;;;;;5094144;28;20164;-67
2022/05/06 13:32:43;;;;;;;5.77;2.47;;;9.20;99.90;;;;;;5094099;28;20216;-67
2022/05/06 13:35:10;;;;;;;3.33;1.77;;;9.10;99.90;;;;;;5093999;28;20184;-67
2022/05/06 13:37:37;;;;;;;4.13;2.07;;;9.10;99.90;;;;;;5094329;28;20183;-67
2022/05/06 13:40:05;;;;;;;3.80;1.83;;;9.00;99.90;;;;;;5094004;28;20233;-68